Clear sky
http://www.flightutilities.com

QR Code
SBPL 180000Z 08004KT CAVOK 25/14 Q1012

Location: SBPL
PETROLINA - BRAZIL (PE)
Latitude: 09°21'54"S - Longitude: 040°33'59"W.
Magnetic declination: 22.59°W
Sunrise: 08:11 UTC
Sunset: 20:44 UTC
Report emitted the day: 18, time 00:00 UTC
Saturday 18 November 2017 00:00 Greenwich time.
Wind: True direction = 080 degrees, speed: 4 knots (7 km/h) (2 m/s).
Runway 13, length 9843 feet, altitude 1249 feet: Cross Wind 2 KT Left - Centerline Wind 4 KT front.
Runway 31, length 9843 feet, altitude 1259 feet: Cross Wind 2 KT Right - Centerline Wind 4 KT rear.
CAVOK conditions: Visibility 10 km or more,
no cloud below 5,000 feet or below the MSA (whichever is greater),
no cumulonimbus, and no significant weather phenomena in
the aerodrome or its vicinity.
Temperature: 25 degrees Celsius (77 Fahrenheit). Dewpoint: 14 degrees Celsius (57 Fahrenheit). Relative humidity 50.52 %.
QNH (Sea-level pressure): 1012 hPa (29.88 inches).
0:57
Metar reliability - Emission time in hours and minutes
NOAA
Visual Flight Rules
4 KT
Wind
25/14
Temperature / Dewpoint
>10Km
Minimum horizontal visibility
 
Clear sky
1012
Sea level pressure
22.59°W
Magnetic declination
08:11 Z
Sunrise
20:44 Z
Sunset
Map
Show on Google Maps